Latest Weather Observations for Falls Creek

IDV60801

Issued at 10:31 am EDT Monday 8 February 2016 (issued every 30 minutes, with the page automatically refreshed every 10 minutes)

About weather observations | Map of weather stations | Latest weather observations for VIC | Other Formats
Station Details ID: 083084 Name: FALLS CREEK Lat: -36.87 Lon: 147.28 Height: 1765.0 m
Data from the previous 72 hours. | See also: Recent months at Falls Creek
Date/Time
EDT
Temp
°C
App
Temp
°C
Dew
Point
Rel
Hum
%
Delta-T
°C
Wind Press
QNH
hPa
Press
MSL
hPa
Rain
since 9 am
mm
Dir
 
Spd
km/h
Gust
km/h
Spd
kts
Gust
kts
08/10:30am 17.7 13.6 8.8 56 5.0 ESE 20 32 11 17 1027.8 1020.0 0.0
08/10:00am 17.1 11.9 9.0 59 4.6 ESE 26 37 14 20 1027.7 1019.8 0.0
08/09:30am 16.9 12.2 9.1 60 4.4 SE 24 37 13 20 1027.6 1019.7 0.0
08/09:00am 16.6 12.2 9.1 61 4.2 SE 22 33 12 18 1027.5 1019.6 0.0
08/08:30am 16.0 11.9 8.0 59 4.4 SE 19 24 10 13 1027.4 1019.5 0.0
08/08:00am 14.9 10.7 7.5 61 4.0 SE 19 26 10 14 1027.2 1019.3 0.0
08/07:30am 13.6 9.2 7.6 67 3.2 SE 20 24 11 13 1027.0 1019.1 0.0
08/07:00am 12.9 8.5 6.7 66 3.3 SSE 19 24 10 13 1026.8 1018.9 0.0
08/06:30am 12.2 8.9 6.5 68 3.0 SSE 13 15 7 8 1026.7 1018.7 0.0
08/06:00am 12.4 9.1 6.5 67 3.1 S 13 15 7 8 1026.4 1018.5 0.0
08/05:30am 12.8 9.7 5.7 62 3.7 SSE 11 11 6 6 1026.2 1018.2 0.0
08/05:00am 12.5 9.4 5.4 62 3.6 SSE 11 13 6 7 1026.2 1018.2 0.0
08/04:30am 12.4 9.3 5.6 63 3.5 SE 11 13 6 7 1026.1 1018.1 0.0
08/04:00am 12.5 9.4 5.7 63 3.5 SSE 11 13 6 7 1026.1 1018.1 0.0
08/03:30am 12.2 9.5 5.8 65 3.3 SE 9 13 5 7 1026.2 1018.2 0.0
08/03:00am 12.2 8.9 6.3 67 3.1 SE 13 15 7 8 1026.3 1018.4 0.0
08/02:30am 12.1 9.2 6.4 68 3.0 SE 11 15 6 8 1026.4 1018.5 0.0
08/02:00am 12.1 9.2 6.4 68 3.0 SSE 11 13 6 7 1026.5 1018.6 0.0
08/01:30am 12.3 9.0 6.6 68 3.0 SSE 13 17 7 9 1026.7 1018.7 0.0
08/01:00am 12.2 8.7 7.1 71 2.7 SSE 15 17 8 9 1026.8 1018.9 0.0
08/12:30am 12.3 9.1 7.0 70 2.8 SSE 13 17 7 9 1026.7 1018.7 0.0
08/12:00am 12.3 9.1 7.0 70 2.8 SSE 13 17 7 9 1026.5 1018.6 0.0
 
Date/Time
EDT
Temp
°C
App
Temp
°C
Dew
Point
Rel
Hum
%
Delta-T
°C
Wind Press
QNH
hPa
Press
MSL
hPa
Rain
since 9 am
mm
Dir
 
Spd
km/h
Gust
km/h
Spd
kts
Gust
kts
07/11:30pm 12.4 9.2 6.9 69 2.9 SSE 13 19 7 10 1026.7 1018.7 0.0
07/11:00pm 12.4 8.9 7.1 70 2.8 SSE 15 19 8 10 1026.8 1018.9 0.0
07/10:30pm 12.5 8.7 7.6 72 2.6 SSE 17 24 9 13 1026.8 1018.9 0.0
07/10:00pm 12.5 9.2 8.0 74 2.4 SSE 15 20 8 11 1026.7 1018.7 0.0
07/09:30pm 12.7 9.5 8.4 75 2.4 SSE 15 20 8 11 1026.5 1018.6 0.0
07/09:00pm 13.0 10.3 9.1 77 2.2 SSE 13 19 7 10 1026.3 1018.4 0.0
07/08:30pm 13.6 10.2 9.3 75 2.4 SE 17 28 9 15 1025.9 1018.0 0.0
07/08:00pm 15.0 11.7 9.4 69 3.1 SE 17 26 9 14 1025.6 1017.6 0.0
07/07:30pm 16.4 12.9 8.6 60 4.4 SSE 17 24 9 13 1025.3 1017.4 0.0
07/07:00pm 17.1 13.2 7.2 52 5.4 SSE 17 24 9 13 1025.1 1017.1 0.0
07/06:30pm 17.6 13.2 7.6 52 5.5 SSE 20 26 11 14 1024.7 1016.8 0.0
07/06:00pm 18.4 15.6 8.7 53 5.5 SSE 13 20 7 11 1024.7 1016.8 0.0
07/05:30pm 18.0 14.4 8.3 53 5.5 SSE 17 26 9 14 1024.6 1016.6 0.0
07/05:00pm 19.3 15.8 8.9 51 5.9 SE 17 30 9 16 1024.5 1016.5 0.0
07/04:30pm 19.0 15.3 8.1 49 6.1 SSE 17 28 9 15 1024.5 1016.5 0.0
07/04:00pm 19.5 15.7 7.6 46 6.6 SSE 17 26 9 14 1024.5 1016.5 0.0
07/03:30pm 19.4 15.6 5.8 41 7.4 SSE 15 30 8 16 1024.7 1016.8 0.0
07/03:00pm 19.3 15.2 4.6 38 7.7 SE 15 24 8 13 1025.0 1017.0 0.0
07/02:30pm 19.1 14.4 5.2 40 7.4 SSE 19 28 10 15 1025.0 1017.0 0.0
07/02:00pm 19.2 15.1 6.0 42 7.1 SSE 17 24 9 13 1024.9 1016.9 0.0
07/01:30pm 18.8 14.3 6.0 43 6.9 SSE 19 30 10 16 1025.0 1017.0 0.0
07/01:00pm 18.1 13.3 2.8 36 7.7 SSE 17 30 9 16 1024.9 1016.9 0.0
07/12:30pm 18.3 13.1 2.2 34 8.1 SSE 19 32 10 17 1024.9 1016.9 0.0
07/12:00pm 18.6 14.5 6.1 44 6.7 SE 17 30 9 16 1024.9 1016.9 0.0
07/11:30am 17.7 13.4 5.3 44 6.6 SSE 17 24 9 13 1024.9 1016.9 0.0
07/11:00am 17.4 12.4 4.7 43 6.6 SSE 20 26 11 14 1024.9 1016.9 0.0
07/10:30am 16.8 12.2 6.3 50 5.6 SSE 20 30 11 16 1024.7 1016.8 0.0
07/10:00am 16.2 12.5 7.9 58 4.6 SSE 17 24 9 13 1024.7 1016.8 0.0
07/09:30am 15.4 11.2 7.4 59 4.4 SSE 19 26 10 14 1024.5 1016.5 0.0
07/09:00am 14.4 10.1 7.7 64 3.6 SE 20 26 11 14 1024.6 1016.6 0.0
07/08:30am 13.5 9.5 9.2 75 2.4 SE 20 26 11 14 1024.3 1016.3 0.0
07/08:00am 12.9 9.1 9.0 77 2.2 ESE 19 24 10 13 1024.2 1016.2 0.0
07/07:30am 12.1 8.5 9.7 85 1.3 ESE 19 22 10 12 1023.9 1015.9 0.0
07/07:00am 12.0 8.0 9.0 82 1.6 ESE 20 22 11 12 1023.8 1015.8 0.0
07/06:30am 12.1 8.5 9.8 86 1.3 ESE 19 22 10 12 1023.7 1015.7 0.0
07/06:00am 12.7 9.5 10.1 84 1.5 ESE 17 19 9 10 1023.4 1015.4 0.0
07/05:30am 12.4 9.6 10.0 85 1.4 ESE 15 19 8 10 1023.2 1015.2 0.0
07/05:00am 12.2 9.0 10.1 87 1.2 ESE 17 19 9 10 1023.2 1015.2 0.0
07/04:30am 11.6 9.5 9.9 89 1.0 E 11 13 6 7 1023.3 1015.3 0.0
07/04:00am 11.7 9.2 9.8 88 1.1 E 13 15 7 8 1023.3 1015.3 0.0
07/03:30am 11.7 9.0 9.1 84 1.4 E 13 17 7 9 1023.4 1015.4 0.0
07/03:00am 11.8 9.0 8.6 81 1.7 E 13 17 7 9 1023.4 1015.4 0.0
07/02:30am 11.7 9.5 9.4 86 1.3 E 11 13 6 7 1023.6 1015.5 0.0
07/02:00am 12.0 10.2 10.7 92 0.7 ENE 11 13 6 7 1023.8 1015.8 0.0
07/01:30am 12.3 10.9 10.9 91 0.8 E 9 9 5 5 1023.9 1015.9 0.0
07/01:00am 12.7 12.2 10.9 89 1.0 SE 4 6 2 3 1024.0 1016.0 0.0
07/12:30am 12.4 11.7 11.3 93 0.6 SE 6 6 3 3 1024.2 1016.2 0.0
07/12:00am 12.4 11.7 11.5 94 0.5 SSE 6 7 3 4 1024.3 1016.3 0.0
 
Date/Time
EDT
Temp
°C
App
Temp
°C
Dew
Point
Rel
Hum
%
Delta-T
°C
Wind Press
QNH
hPa
Press
MSL
hPa
Rain
since 9 am
mm
Dir
 
Spd
km/h
Gust
km/h
Spd
kts
Gust
kts
06/11:30pm 12.6 12.0 11.8 95 0.5 SE 6 7 3 4 1024.3 1016.3 0.0
06/11:00pm 12.7 11.7 12.4 98 0.2 SSE 9 11 5 6 1024.2 1016.2 0.0
06/10:30pm 11.8 10.7 11.8 100 0.0 SSE 9 9 5 5 1024.3 1016.3 0.0
06/10:00pm 12.6 11.7 12.6 100 0.0 SSE 9 11 5 6 1024.2 1016.2 0.0
06/09:30pm 13.0 11.4 12.8 99 0.1 SSE 13 15 7 8 1023.9 1015.9 0.0
06/09:00pm 13.0 11.7 12.4 96 0.4 SSE 11 15 6 8 1023.6 1015.5 0.0
06/08:30pm 13.3 11.9 12.2 93 0.6 SSE 11 17 6 9 1023.4 1015.4 0.0
06/08:00pm 14.2 12.2 11.5 84 1.6 SE 13 17 7 9 1023.2 1015.2 0.0
06/07:30pm 15.3 13.6 11.1 76 2.5 SSE 11 17 6 9 1023.0 1014.9 0.0
06/07:00pm 16.5 14.6 10.6 68 3.4 SE 11 17 6 9 1022.7 1014.7 0.0
06/06:30pm 17.4 16.6 9.8 61 4.4 E 4 9 2 5 1022.5 1014.4 0.0
06/06:00pm 18.7 17.4 10.0 57 5.0 ENE 7 15 4 8 1022.5 1014.4 0.0
06/05:30pm 18.9 17.0 10.5 58 4.9 NE 11 17 6 9 1022.4 1014.3 0.0
06/05:00pm 18.3 15.8 9.6 57 5.0 N 13 19 7 10 1022.5 1014.4 0.0
06/04:30pm 18.6 16.2 9.9 57 5.0 NNE 13 20 7 11 1022.6 1014.6 0.0
06/04:00pm 19.3 17.2 9.8 54 5.5 NNE 11 19 6 10 1022.8 1014.8 0.0
06/03:30pm 19.1 16.9 9.3 53 5.6 NNE 11 20 6 11 1023.0 1014.9 0.0
06/03:00pm 19.0 15.9 7.4 47 6.4 NNE 13 20 7 11 1023.2 1015.2 0.0
06/02:30pm 18.8 15.8 7.9 49 6.1 NNE 13 19 7 10 1023.4 1015.4 0.0
06/02:00pm 18.6 14.9 4.4 39 7.4 NNE 13 19 7 10 1023.6 1015.5 0.0
06/01:30pm 18.1 14.1 2.8 36 7.8 N 13 22 7 12 1023.7 1015.7 0.0
06/01:00pm 18.4 14.2 1.9 33 8.2 N 13 22 7 12 1023.8 1015.8 0.0
06/12:30pm 18.4 13.5 -0.4 28 9.0 NNE 15 22 8 12 1023.9 1015.9 0.0
06/12:00pm 17.4 13.3 2.2 36 7.6 N 13 19 7 10 1024.2 1016.2 0.0
06/11:30am 17.2 14.9 7.5 53 5.3 NNE 9 13 5 7 1024.2 1016.2 0.0
06/11:00am 17.4 15.1 5.7 46 6.2 NNE 7 13 4 7 1024.0 1016.0 0.0
06/10:30am 17.1 15.1 7.2 52 5.4 NE 7 11 4 6 1023.9 1015.9 0.0
06/10:00am 17.6 14.9 5.5 45 6.4 ENE 9 11 5 6 1023.8 1015.8 0.0
06/09:30am 16.3 13.3 2.3 39 6.9 ESE 7 9 4 5 1023.7 1015.7 0.0
06/09:00am 15.3 12.0 -0.9 33 7.4 SE 6 9 3 5 1023.7 1015.7 0.0
06/08:30am 14.7 11.2 -1.4 33 7.3 SE 7 11 4 6 1023.7 1015.7 0.0
06/08:00am 13.0 9.9 0.4 42 5.8 SSE 6 11 3 6 1023.3 1015.3 0.0
06/07:30am 12.2 8.9 -1.0 40 5.9 ESE 6 7 3 4 1023.2 1015.2 0.0
06/07:00am 12.5 9.0 -1.4 38 6.2 ENE 7 9 4 5 1023.0 1014.9 0.0
06/06:30am 12.5 9.2 -1.4 38 6.2 NE 6 9 3 5 1022.7 1014.7 0.0
06/06:00am 11.3 8.1 -0.5 44 5.3 ESE 6 9 3 5 1022.6 1014.6 0.0
06/05:30am 10.8 6.8 0.5 49 4.7 ESE 11 20 6 11 1022.6 1014.6 0.0
06/05:00am 9.8 5.7 2.4 60 3.5 ENE 13 19 7 10 1022.6 1014.6 0.0
06/04:30am 8.8 5.8 4.0 72 2.3 SSE 9 13 5 7 1022.7 1014.7 0.0
06/04:00am 8.5 5.6 4.9 78 1.8 SSE 9 11 5 6 1022.7 1014.7 0.0
06/03:30am 8.5 4.8 4.3 75 2.1 SSE 13 19 7 10 1022.8 1014.8 0.0
06/03:00am 8.6 4.9 4.6 76 2.0 SSE 13 19 7 10 1023.1 1015.0 0.0
06/02:30am 8.6 4.3 5.2 79 1.7 SSE 17 20 9 11 1023.2 1015.2 0.0
06/02:00am 8.5 4.4 6.0 84 1.3 SSE 17 22 9 12 1023.4 1015.4 0.0
06/01:30am 9.0 4.4 5.4 78 1.8 SSE 19 26 10 14 1023.7 1015.7 0.0
06/01:00am 8.3 4.7 8.3 100 0.0 SSE 17 22 9 12 1023.9 1015.9 0.0
06/12:30am 8.4 4.8 8.4 100 0.0 SSE 17 20 9 11 1024.3 1016.3 0.0
06/12:00am 8.7 4.8 8.7 100 0.0 SSE 19 24 10 13 1024.3 1016.3 0.0
 
Date/Time
EDT
Temp
°C
App
Temp
°C
Dew
Point
Rel
Hum
%
Delta-T
°C
Wind Press
QNH
hPa
Press
MSL
hPa
Rain
since 9 am
mm
Dir
 
Spd
km/h
Gust
km/h
Spd
kts
Gust
kts
05/11:30pm 8.9 5.1 8.9 100 0.0 S 19 22 10 12 1024.6 1016.6 0.0
05/11:00pm 9.0 5.9 9.0 100 0.0 SSE 15 19 8 10 1025.0 1017.0 0.0
05/10:30pm 9.0 5.6 9.0 100 0.0 SSE 17 20 9 11 1025.0 1017.0 0.0
05/10:00pm 9.1 6.1 9.1 100 0.0 SSE 15 19 8 10 1025.0 1017.0 0.0
05/09:30pm 9.3 6.3 9.3 100 0.0 SSE 15 20 8 11 1024.7 1016.8 0.0
05/09:00pm 9.5 6.5 9.2 98 0.2 SSE 15 19 8 10 1024.6 1016.6 0.0
05/08:30pm 10.0 7.0 9.1 94 0.5 SSE 15 20 8 11 1024.5 1016.5 0.0
05/08:00pm 11.1 7.7 9.0 87 1.1 SE 17 20 9 11 1024.3 1016.3 0.0
05/07:30pm 12.4 9.4 9.4 82 1.7 SE 15 22 8 12 1024.2 1016.2 0.0
05/07:00pm 13.3 10.0 9.5 78 2.1 SE 17 22 9 12 1024.0 1016.0 0.0
05/06:30pm 14.0 10.7 9.6 75 2.5 SE 17 22 9 12 1023.9 1015.9 0.0
05/06:00pm 14.9 11.6 9.5 70 3.0 SE 17 24 9 13 1023.8 1015.8 0.0
05/05:30pm 15.3 11.9 9.2 67 3.4 SE 17 22 9 12 1023.9 1015.9 0.0
05/05:00pm 15.7 12.0 9.4 66 3.6 SE 19 24 10 13 1024.0 1016.0 0.0
05/04:30pm 16.0 13.0 9.2 64 3.8 SE 15 22 8 12 1024.2 1016.2 0.0
05/04:00pm 16.2 13.1 8.9 62 4.1 SE 15 20 8 11 1024.2 1016.2 0.0
05/03:30pm 15.5 12.6 8.3 62 4.0 SE 13 22 7 12 1024.3 1016.3 0.0
05/03:00pm 15.3 11.9 9.0 66 3.5 SSE 17 26 9 14 1024.4 1016.4 0.0
05/02:30pm 15.1 11.8 8.1 63 3.9 SSE 15 20 8 11 1024.5 1016.5 0.0
05/02:00pm 14.4 11.1 7.9 65 3.5 SSE 15 22 8 12 1024.6 1016.6 0.0
05/01:30pm 13.8 10.1 7.8 67 3.3 SE 17 26 9 14 1024.7 1016.8 0.0
05/01:00pm 13.4 8.9 6.3 62 3.7 SSE 19 28 10 15 1024.6 1016.6 0.0
05/12:30pm 13.2 8.7 6.1 62 3.7 SE 19 28 10 15 1024.9 1016.9 0.0
05/12:00pm 12.2 7.8 6.7 69 2.9 SE 19 28 10 15 1025.0 1017.0 0.0
05/11:30am 11.3 6.6 6.0 70 2.7 SE 20 30 11 16 1025.0 1017.0 0.0
05/11:00am 10.3 5.4 5.3 71 2.5 SE 20 30 11 16 1024.9 1016.9 0.0

Other Formats:

Comma delimited format used in spreadsheet applications
http://www.bom.gov.au/fwo/IDV60801/IDV60801.94903.axf

JavaScript Object Notation format (JSON) in row-major order
http://www.bom.gov.au/fwo/IDV60801/IDV60801.94903.json